createdAt,value
2023-03-28T00:01:09.783Z,100.00
2023-03-28T00:03:41.477Z,100.00
2023-03-28T00:06:18.661Z,100.00
2023-03-28T00:08:48.057Z,100.00
2023-03-28T00:11:20.533Z,100.00
2023-03-28T00:13:57.737Z,100.00
2023-03-28T00:16:32.584Z,100.00
2023-03-28T00:19:03.294Z,100.00
2023-03-28T00:21:34.045Z,100.00
2023-03-28T00:24:05.018Z,100.00
2023-03-28T00:26:35.814Z,100.00
2023-03-28T00:29:09.103Z,100.00
2023-03-28T00:31:39.192Z,100.00
2023-03-28T00:34:07.442Z,100.00
2023-03-28T00:36:39.098Z,100.00
2023-03-28T00:39:07.841Z,100.00
2023-03-28T00:41:40.254Z,100.00
2023-03-28T00:44:44.864Z,100.00
2023-03-28T00:47:27.807Z,100.00
2023-03-28T00:50:03.074Z,100.00
2023-03-28T00:52:33.768Z,100.00
2023-03-28T00:55:04.617Z,100.00
2023-03-28T00:57:33.771Z,100.00
2023-03-28T01:00:01.838Z,100.00
2023-03-28T01:02:30.440Z,100.00
2023-03-28T01:05:03.920Z,100.00
2023-03-28T01:07:40.913Z,100.00
2023-03-28T01:10:09.506Z,100.00
2023-03-28T01:12:41.157Z,100.00
2023-03-28T01:15:10.685Z,100.00
2023-03-28T01:17:48.376Z,100.00
2023-03-28T01:20:42.101Z,100.00
2023-03-28T01:23:26.555Z,100.00
2023-03-28T01:26:17.809Z,100.00
2023-03-28T01:28:52.520Z,100.00
2023-03-28T01:31:41.811Z,100.00
2023-03-28T01:34:43.042Z,100.00
2023-03-28T01:37:14.704Z,100.00
2023-03-28T01:39:53.189Z,100.00
2023-03-28T01:42:33.876Z,100.00
2023-03-28T01:45:15.394Z,100.00
2023-03-28T01:48:02.747Z,100.00
2023-03-28T01:50:44.123Z,100.00
2023-03-28T01:53:40.668Z,100.00
2023-03-28T01:56:30.752Z,100.00
2023-03-28T01:59:33.025Z,100.00
2023-03-28T02:02:37.061Z,100.00
2023-03-28T02:05:25.516Z,100.00
2023-03-28T02:07:55.208Z,100.00
2023-03-28T02:10:55.663Z,100.00
2023-03-28T02:14:07.329Z,100.00
2023-03-28T02:17:04.871Z,100.00
2023-03-28T02:20:11.817Z,100.00
2023-03-28T02:23:16.098Z,100.00
2023-03-28T02:26:03.102Z,100.00
2023-03-28T02:28:53.843Z,100.00
2023-03-28T02:31:46.554Z,100.00
2023-03-28T02:34:14.511Z,100.00
2023-03-28T02:37:01.593Z,100.00
2023-03-28T02:39:48.246Z,100.00
2023-03-28T02:42:31.578Z,100.00
2023-03-28T02:45:22.728Z,100.00
2023-03-28T02:48:12.646Z,100.00
2023-03-28T02:50:49.972Z,100.00
2023-03-28T02:53:27.565Z,100.00
2023-03-28T02:56:04.866Z,100.00
2023-03-28T02:59:29.784Z,100.00
2023-03-28T03:01:57.926Z,100.00
2023-03-28T03:04:26.008Z,100.00
2023-03-28T03:06:54.686Z,100.00
2023-03-28T03:09:23.114Z,100.00
2023-03-28T03:11:51.165Z,100.00
2023-03-28T03:14:19.235Z,100.00
2023-03-28T03:16:49.007Z,100.00
2023-03-28T03:19:20.212Z,100.00
2023-03-28T03:21:49.662Z,100.00
2023-03-28T03:24:17.783Z,100.00
2023-03-28T03:26:45.840Z,100.00
2023-03-28T03:29:17.500Z,100.00
2023-03-28T03:31:46.336Z,100.00
2023-03-28T03:34:43.561Z,100.00
2023-03-28T03:37:11.638Z,100.00
2023-03-28T03:39:40.002Z,100.00
2023-03-28T03:42:07.973Z,100.00
2023-03-28T03:44:36.996Z,100.00
2023-03-28T03:47:06.512Z,100.00
2023-03-28T03:49:34.926Z,100.00
2023-03-28T03:52:04.635Z,100.00
2023-03-28T03:54:32.674Z,100.00
2023-03-28T03:57:02.950Z,100.00
2023-03-28T03:59:33.146Z,100.00
2023-03-28T04:02:01.777Z,100.00
2023-03-28T04:04:50.605Z,100.00
2023-03-28T04:07:23.566Z,100.00
2023-03-28T04:09:53.376Z,100.00
2023-03-28T04:12:22.201Z,100.00
2023-03-28T04:14:51.988Z,100.00
2023-03-28T04:17:41.515Z,100.00
2023-03-28T04:20:21.529Z,100.00
2023-03-28T04:23:05.932Z,100.00
2023-03-28T04:25:34.620Z,100.00
2023-03-28T04:28:08.478Z,100.00
2023-03-28T04:30:39.437Z,100.00
2023-03-28T04:33:49.727Z,100.00
2023-03-28T04:36:19.075Z,100.00
2023-03-28T04:38:53.171Z,100.00
2023-03-28T04:41:40.873Z,100.00
2023-03-28T04:44:46.966Z,100.00
2023-03-28T04:47:16.084Z,100.00
2023-03-28T04:49:44.122Z,100.00
2023-03-28T04:52:12.341Z,100.00
2023-03-28T04:54:43.748Z,100.00
2023-03-28T04:57:18.156Z,100.00
2023-03-28T04:59:48.760Z,100.00
2023-03-28T05:02:27.122Z,100.00
2023-03-28T05:05:04.071Z,100.00
2023-03-28T05:07:40.921Z,100.00
2023-03-28T05:10:10.754Z,100.00
2023-03-28T05:12:41.474Z,100.00
2023-03-28T05:15:09.859Z,100.00
2023-03-28T05:17:47.434Z,100.00
2023-03-28T05:20:26.870Z,100.00
2023-03-28T05:22:57.405Z,100.00
2023-03-28T05:25:26.269Z,100.00
2023-03-28T05:27:56.500Z,100.00
2023-03-28T05:30:25.355Z,100.00
2023-03-28T05:32:56.676Z,100.00
2023-03-28T05:35:27.120Z,100.00
2023-03-28T05:37:55.386Z,100.00
2023-03-28T05:40:23.845Z,100.00
2023-03-28T05:42:52.750Z,100.00
2023-03-28T05:45:22.676Z,100.00
2023-03-28T05:48:01.426Z,100.00
2023-03-28T05:50:31.771Z,100.00
2023-03-28T05:53:04.861Z,100.00
2023-03-28T05:55:35.559Z,100.00
2023-03-28T05:58:05.362Z,100.00
2023-03-28T06:00:38.570Z,100.00
2023-03-28T06:03:08.134Z,100.00
2023-03-28T06:05:40.040Z,100.00
2023-03-28T06:08:15.782Z,100.00
2023-03-28T06:10:44.551Z,100.00
2023-03-28T06:13:20.075Z,100.00
2023-03-28T06:15:48.913Z,100.00
2023-03-28T06:18:18.700Z,100.00
2023-03-28T06:20:48.048Z,100.00
2023-03-28T06:23:16.702Z,100.00
2023-03-28T06:25:45.387Z,100.00
2023-03-28T06:28:15.268Z,100.00
2023-03-28T06:31:02.309Z,100.00
2023-03-28T06:33:31.360Z,100.00
2023-03-28T06:35:59.679Z,100.00
2023-03-28T06:38:30.619Z,100.00
2023-03-28T06:40:59.334Z,100.00
2023-03-28T06:43:27.543Z,100.00
2023-03-28T06:46:10.257Z,100.00
2023-03-28T06:48:43.395Z,100.00
2023-03-28T06:51:26.808Z,100.00
2023-03-28T06:53:56.259Z,100.00
2023-03-28T06:56:30.396Z,100.00
2023-03-28T06:58:59.247Z,100.00
2023-03-28T07:01:28.557Z,100.00
2023-03-28T07:04:10.503Z,100.00
2023-03-28T07:06:39.145Z,100.00
2023-03-28T07:09:07.281Z,100.00
2023-03-28T07:11:41.764Z,100.00
2023-03-28T07:14:11.545Z,100.00
2023-03-28T07:16:40.016Z,100.00
2023-03-28T07:19:08.599Z,100.00
2023-03-28T07:21:38.205Z,100.00
2023-03-28T07:24:08.006Z,100.00
2023-03-28T07:26:54.855Z,100.00
2023-03-28T07:29:30.171Z,100.00
2023-03-28T07:31:58.420Z,100.00
2023-03-28T07:34:26.935Z,100.00
2023-03-28T07:36:56.190Z,100.00
2023-03-28T07:39:49.283Z,100.00
2023-03-28T07:42:19.923Z,100.00
2023-03-28T07:44:48.106Z,100.00
2023-03-28T07:47:18.434Z,100.00
2023-03-28T07:49:47.357Z,100.00
2023-03-28T07:52:15.787Z,100.00
2023-03-28T07:54:46.472Z,100.00
2023-03-28T07:57:14.994Z,100.00
2023-03-28T08:00:09.316Z,100.00
2023-03-28T08:02:44.823Z,100.00
2023-03-28T08:05:15.458Z,100.00
2023-03-28T08:07:46.509Z,100.00
2023-03-28T08:10:15.252Z,100.00
2023-03-28T08:12:45.018Z,100.00
2023-03-28T08:15:13.548Z,100.00
2023-03-28T08:17:42.183Z,100.00
2023-03-28T08:20:11.942Z,100.00
2023-03-28T08:23:07.589Z,100.00
2023-03-28T08:25:45.095Z,100.00
2023-03-28T08:28:15.363Z,100.00
2023-03-28T08:30:44.540Z,100.00
2023-03-28T08:33:12.944Z,100.00
2023-03-28T08:35:42.292Z,100.00
2023-03-28T08:38:20.428Z,100.00
2023-03-28T08:41:04.093Z,99.57
2023-03-28T08:44:03.737Z,100.00
2023-03-28T08:46:35.916Z,100.00
2023-03-28T08:49:10.990Z,99.46
2023-03-28T08:51:47.784Z,98.98
2023-03-28T08:54:22.303Z,98.70
2023-03-28T08:56:57.493Z,98.07
2023-03-28T08:59:29.442Z,96.78
2023-03-28T09:01:57.732Z,89.74
2023-03-28T09:04:32.048Z,85.83
2023-03-28T09:08:00.452Z,95.39
2023-03-28T09:10:38.621Z,98.06
2023-03-28T09:13:27.434Z,97.05
2023-03-28T09:16:46.611Z,91.14
2023-03-28T09:19:47.142Z,97.12
2023-03-28T09:23:00.704Z,91.48
2023-03-28T09:25:56.329Z,84.33
2023-03-28T09:28:44.942Z,83.28
2023-03-28T09:31:18.373Z,76.49
2023-03-28T09:33:50.782Z,86.24
2023-03-28T09:36:45.290Z,79.36
2023-03-28T09:39:44.334Z,77.12
2023-03-28T09:42:32.231Z,71.00
2023-03-28T09:45:32.584Z,70.93
2023-03-28T09:48:02.106Z,85.01
2023-03-28T09:50:33.496Z,70.06
2023-03-28T09:53:03.856Z,80.24
2023-03-28T09:55:35.526Z,85.88
2023-03-28T09:58:12.482Z,77.00
2023-03-28T10:01:42.031Z,73.52
2023-03-28T10:04:14.588Z,75.75
2023-03-28T10:07:11.296Z,69.18
2023-03-28T10:09:55.225Z,81.91
2023-03-28T10:12:36.320Z,73.99
2023-03-28T10:15:11.084Z,77.32
2023-03-28T10:18:01.391Z,67.20
2023-03-28T10:20:38.472Z,57.73
2023-03-28T10:23:07.204Z,74.36
2023-03-28T10:25:40.388Z,72.76
2023-03-28T10:28:15.341Z,76.05
2023-03-28T10:30:53.777Z,69.96
2023-03-28T10:34:01.906Z,72.28
2023-03-28T10:36:54.048Z,69.33
2023-03-28T10:39:31.143Z,61.17
2023-03-28T10:42:20.050Z,65.69
2023-03-28T10:45:01.481Z,66.97
2023-03-28T10:47:32.289Z,59.10
2023-03-28T10:50:36.643Z,76.41
2023-03-28T10:53:12.557Z,66.62
2023-03-28T10:55:54.043Z,66.34
2023-03-28T10:58:39.763Z,65.47
2023-03-28T11:01:20.850Z,59.87
2023-03-28T11:04:24.704Z,66.04
2023-03-28T11:07:12.745Z,58.73
2023-03-28T11:10:07.469Z,53.79
2023-03-28T11:13:27.155Z,50.73
2023-03-28T11:16:04.335Z,56.58
2023-03-28T11:18:50.655Z,74.55
2023-03-28T11:21:44.195Z,56.33
2023-03-28T11:24:40.992Z,56.02
2023-03-28T11:28:43.144Z,57.65
2023-03-28T11:31:38.048Z,55.12
2023-03-28T11:34:46.397Z,63.41
2023-03-28T11:37:23.473Z,52.13
2023-03-28T11:40:14.186Z,53.11
2023-03-28T11:43:00.316Z,52.57
2023-03-28T11:45:50.142Z,65.99
2023-03-28T11:48:26.666Z,70.84
2023-03-28T11:51:17.714Z,63.21
2023-03-28T11:54:30.994Z,51.82
2023-03-28T11:57:21.333Z,55.13
2023-03-28T12:00:05.554Z,66.46
2023-03-28T12:02:48.171Z,58.27
2023-03-28T12:05:36.768Z,70.51
2023-03-28T12:08:32.535Z,58.66
2023-03-28T12:11:08.364Z,57.31
2023-03-28T12:14:11.119Z,54.52
2023-03-28T12:16:49.048Z,51.99
2023-03-28T12:19:30.565Z,67.62
2023-03-28T12:22:09.409Z,58.98
2023-03-28T12:25:08.088Z,65.93
2023-03-28T12:28:05.643Z,83.09
2023-03-28T12:30:36.907Z,81.20
2023-03-28T12:33:23.289Z,65.65
2023-03-28T12:36:26.360Z,90.20
2023-03-28T12:39:01.543Z,100.00
2023-03-28T12:41:40.339Z,100.00
2023-03-28T12:44:14.000Z,100.00
2023-03-28T12:47:03.291Z,98.92
2023-03-28T12:49:45.956Z,98.53
2023-03-28T12:52:23.572Z,88.81
2023-03-28T12:54:59.718Z,76.65
2023-03-28T12:57:42.698Z,92.56
2023-03-28T13:00:42.684Z,64.79
2023-03-28T13:04:07.714Z,74.38
2023-03-28T13:07:23.649Z,53.00
2023-03-28T13:10:02.149Z,59.58
2023-03-28T13:13:00.490Z,61.71
2023-03-28T13:15:38.538Z,58.08
2023-03-28T13:18:22.162Z,64.71
2023-03-28T13:20:52.476Z,54.63
2023-03-28T13:23:31.696Z,63.14
2023-03-28T13:26:04.084Z,76.69
2023-03-28T13:28:43.453Z,84.45
2023-03-28T13:31:22.154Z,98.65
2023-03-28T13:33:58.857Z,78.42
2023-03-28T13:36:38.019Z,67.01
2023-03-28T13:39:28.926Z,84.01
2023-03-28T13:42:02.289Z,85.43
2023-03-28T13:44:42.914Z,83.53
2023-03-28T13:47:23.783Z,74.88
2023-03-28T13:50:01.066Z,79.82
2023-03-28T13:52:35.493Z,76.16
2023-03-28T13:55:25.680Z,89.96
2023-03-28T13:57:54.259Z,94.26
2023-03-28T14:00:27.483Z,95.29
2023-03-28T14:03:47.876Z,91.34
2023-03-28T14:06:22.719Z,87.82
2023-03-28T14:08:59.887Z,97.42
2023-03-28T14:11:36.715Z,96.20
2023-03-28T14:14:19.024Z,100.00
2023-03-28T14:16:47.282Z,100.00
2023-03-28T14:19:21.761Z,100.00
2023-03-28T14:21:53.344Z,100.00
2023-03-28T14:24:25.714Z,100.00
2023-03-28T14:27:07.418Z,100.00
2023-03-28T14:29:37.288Z,100.00
2023-03-28T14:32:30.580Z,100.00
2023-03-28T14:35:22.573Z,100.00
2023-03-28T14:37:56.549Z,100.00
2023-03-28T14:40:25.862Z,100.00
2023-03-28T14:43:19.048Z,100.00
2023-03-28T14:45:54.484Z,98.60
2023-03-28T14:48:28.376Z,94.83
2023-03-28T14:51:00.516Z,88.31
2023-03-28T14:53:36.716Z,86.02
2023-03-28T14:56:29.986Z,82.69
2023-03-28T14:59:02.656Z,77.20
2023-03-28T15:01:34.034Z,74.35
2023-03-28T15:04:07.082Z,72.03
2023-03-28T15:06:37.146Z,79.25
2023-03-28T15:09:17.019Z,85.51
2023-03-28T15:11:47.281Z,80.72
2023-03-28T15:14:27.345Z,93.21
2023-03-28T15:16:57.812Z,95.13
2023-03-28T15:19:33.996Z,99.22
2023-03-28T15:22:13.773Z,100.00
2023-03-28T15:24:42.110Z,100.00
2023-03-28T15:27:23.241Z,100.00
2023-03-28T15:29:51.686Z,100.00
2023-03-28T15:32:20.704Z,100.00
2023-03-28T15:35:07.385Z,100.00
2023-03-28T15:37:46.371Z,100.00
2023-03-28T15:40:30.039Z,100.00
2023-03-28T15:43:00.947Z,100.00
2023-03-28T15:45:41.625Z,100.00
2023-03-28T15:48:17.271Z,100.00
2023-03-28T15:50:51.933Z,100.00
2023-03-28T15:53:21.247Z,100.00
2023-03-28T15:55:50.511Z,100.00
2023-03-28T15:58:22.411Z,100.00
2023-03-28T16:00:53.001Z,100.00
2023-03-28T16:03:21.349Z,100.00
2023-03-28T16:06:01.875Z,100.00
2023-03-28T16:08:45.616Z,100.00
2023-03-28T16:11:22.178Z,100.00
2023-03-28T16:14:13.954Z,100.00
2023-03-28T16:16:56.594Z,100.00
2023-03-28T16:19:34.995Z,100.00
2023-03-28T16:22:04.099Z,100.00
2023-03-28T16:24:32.590Z,100.00
2023-03-28T16:27:02.694Z,100.00
2023-03-28T16:29:31.029Z,100.00
2023-03-28T16:31:59.236Z,100.00
2023-03-28T16:34:35.098Z,100.00
2023-03-28T16:37:03.236Z,100.00
2023-03-28T16:39:32.179Z,100.00
2023-03-28T16:42:00.930Z,100.00
2023-03-28T16:44:28.946Z,100.00
2023-03-28T16:46:57.228Z,100.00
2023-03-28T16:49:25.372Z,100.00
2023-03-28T16:51:55.037Z,100.00
2023-03-28T16:54:24.028Z,100.00
2023-03-28T16:56:52.287Z,100.00
2023-03-28T16:59:20.855Z,100.00
2023-03-28T17:01:49.222Z,100.00
2023-03-28T17:04:17.380Z,100.00
2023-03-28T17:06:45.888Z,100.00
2023-03-28T17:09:14.769Z,100.00
2023-03-28T17:11:43.060Z,100.00
2023-03-28T17:14:12.494Z,100.00
2023-03-28T17:16:40.789Z,100.00
2023-03-28T17:19:09.050Z,100.00
2023-03-28T17:21:38.097Z,100.00
2023-03-28T17:24:11.951Z,100.00
2023-03-28T17:26:40.917Z,100.00
2023-03-28T17:29:12.029Z,100.00
2023-03-28T17:31:42.318Z,100.00
2023-03-28T17:34:13.544Z,100.00
2023-03-28T17:36:41.798Z,100.00
2023-03-28T17:39:10.613Z,100.00
2023-03-28T17:41:38.784Z,100.00
2023-03-28T17:44:09.013Z,100.00
2023-03-28T17:46:37.551Z,100.00
2023-03-28T17:49:08.228Z,100.00
2023-03-28T17:51:36.695Z,100.00
2023-03-28T17:54:12.105Z,100.00
2023-03-28T17:56:42.590Z,100.00
2023-03-28T17:59:12.674Z,100.00
2023-03-28T18:01:41.133Z,100.00
2023-03-28T18:04:09.382Z,100.00
2023-03-28T18:07:02.443Z,100.00
2023-03-28T18:09:45.064Z,100.00
2023-03-28T18:12:16.650Z,100.00
2023-03-28T18:14:46.080Z,100.00
2023-03-28T18:17:16.218Z,100.00
2023-03-28T18:19:44.300Z,100.00
2023-03-28T18:22:13.422Z,100.00
2023-03-28T18:24:41.629Z,100.00
2023-03-28T18:27:10.109Z,100.00
2023-03-28T18:29:38.389Z,100.00
2023-03-28T18:32:09.399Z,100.00
2023-03-28T18:34:37.620Z,100.00
2023-03-28T18:37:08.117Z,100.00
2023-03-28T18:39:36.397Z,100.00
2023-03-28T18:42:06.441Z,100.00
2023-03-28T18:44:38.975Z,100.00
2023-03-28T18:47:07.178Z,100.00
2023-03-28T18:49:35.210Z,100.00
2023-03-28T18:52:06.542Z,100.00
2023-03-28T18:54:35.168Z,100.00
2023-03-28T18:57:07.338Z,100.00
2023-03-28T18:59:38.061Z,100.00
2023-03-28T19:02:13.034Z,100.00
2023-03-28T19:04:41.218Z,100.00
2023-03-28T19:07:10.124Z,100.00
2023-03-28T19:09:38.371Z,100.00
2023-03-28T19:12:09.301Z,100.00
2023-03-28T19:14:38.855Z,100.00
2023-03-28T19:17:07.526Z,100.00
2023-03-28T19:19:37.652Z,100.00
2023-03-28T19:22:06.680Z,100.00
2023-03-28T19:24:34.719Z,100.00
2023-03-28T19:27:05.126Z,100.00
2023-03-28T19:29:33.738Z,100.00
2023-03-28T19:32:01.931Z,100.00
2023-03-28T19:34:29.916Z,100.00
2023-03-28T19:36:57.959Z,100.00
2023-03-28T19:39:26.136Z,100.00
2023-03-28T19:41:55.977Z,100.00
2023-03-28T19:44:24.130Z,100.00
2023-03-28T19:46:52.123Z,100.00
2023-03-28T19:49:20.218Z,100.00
2023-03-28T19:51:48.290Z,100.00
2023-03-28T19:54:16.608Z,100.00
2023-03-28T19:56:46.001Z,100.00
2023-03-28T19:59:15.668Z,100.00
2023-03-28T20:01:43.725Z,100.00
2023-03-28T20:04:12.192Z,100.00
2023-03-28T20:06:40.651Z,100.00
2023-03-28T20:09:08.785Z,100.00
2023-03-28T20:11:39.969Z,100.00
2023-03-28T20:14:09.091Z,100.00
2023-03-28T20:16:38.221Z,100.00
2023-03-28T20:19:07.027Z,100.00
2023-03-28T20:21:35.600Z,100.00
2023-03-28T20:24:04.239Z,100.00
2023-03-28T20:26:33.119Z,100.00
2023-03-28T20:29:01.550Z,100.00
2023-03-28T20:31:29.761Z,100.00
2023-03-28T20:33:58.015Z,100.00
2023-03-28T20:36:27.387Z,100.00
2023-03-28T20:38:56.497Z,100.00
2023-03-28T20:41:26.455Z,100.00
2023-03-28T20:44:03.174Z,100.00
2023-03-28T20:46:38.174Z,100.00
2023-03-28T20:49:07.902Z,100.00
2023-03-28T20:51:39.292Z,100.00
2023-03-28T20:54:07.633Z,100.00
2023-03-28T20:56:36.365Z,100.00
2023-03-28T20:59:04.785Z,100.00
2023-03-28T21:01:32.923Z,100.00
2023-03-28T21:04:02.294Z,100.00
2023-03-28T21:06:34.581Z,100.00
2023-03-28T21:09:10.876Z,100.00
2023-03-28T21:11:39.943Z,100.00
2023-03-28T21:14:10.332Z,100.00
2023-03-28T21:16:38.693Z,100.00
2023-03-28T21:19:07.044Z,100.00
2023-03-28T21:21:36.171Z,100.00
2023-03-28T21:24:05.208Z,100.00
2023-03-28T21:26:33.362Z,100.00
2023-03-28T21:29:01.700Z,100.00
2023-03-28T21:31:29.916Z,100.00
2023-03-28T21:33:59.259Z,100.00
2023-03-28T21:36:28.046Z,100.00
2023-03-28T21:38:57.052Z,100.00
2023-03-28T21:41:27.312Z,100.00
2023-03-28T21:43:55.782Z,100.00
2023-03-28T21:46:23.930Z,100.00
2023-03-28T21:48:51.915Z,100.00
2023-03-28T21:51:20.126Z,100.00
2023-03-28T21:53:48.673Z,100.00
2023-03-28T21:56:16.880Z,100.00
2023-03-28T21:58:44.990Z,100.00
2023-03-28T22:01:17.502Z,100.00
2023-03-28T22:03:47.224Z,100.00
2023-03-28T22:06:18.174Z,100.00
2023-03-28T22:08:49.430Z,100.00
2023-03-28T22:11:20.387Z,100.00
2023-03-28T22:13:48.504Z,100.00
2023-03-28T22:16:16.586Z,100.00
2023-03-28T22:18:50.078Z,100.00
2023-03-28T22:21:18.491Z,100.00
2023-03-28T22:23:49.624Z,100.00
2023-03-28T22:26:18.118Z,100.00
2023-03-28T22:28:46.629Z,100.00
2023-03-28T22:31:16.940Z,100.00
2023-03-28T22:33:45.081Z,100.00
2023-03-28T22:36:15.381Z,100.00
2023-03-28T22:38:43.668Z,100.00
2023-03-28T22:41:12.150Z,100.00
2023-03-28T22:43:44.114Z,100.00
2023-03-28T22:46:12.885Z,100.00
2023-03-28T22:48:42.102Z,100.00
2023-03-28T22:51:13.997Z,100.00
2023-03-28T22:53:42.017Z,100.00
2023-03-28T22:56:10.149Z,100.00
2023-03-28T22:58:38.219Z,100.00
2023-03-28T23:01:06.586Z,100.00
2023-03-28T23:03:34.474Z,100.00
2023-03-28T23:06:06.279Z,100.00
2023-03-28T23:08:34.957Z,100.00
2023-03-28T23:11:03.335Z,100.00
2023-03-28T23:13:31.882Z,100.00
2023-03-28T23:16:00.242Z,100.00
2023-03-28T23:18:30.252Z,100.00
2023-03-28T23:20:58.270Z,100.00
2023-03-28T23:23:27.289Z,100.00
2023-03-28T23:25:55.402Z,100.00
2023-03-28T23:28:23.438Z,100.00
2023-03-28T23:30:51.359Z,100.00
2023-03-28T23:33:19.834Z,100.00
2023-03-28T23:35:48.454Z,100.00
2023-03-28T23:38:17.691Z,100.00
2023-03-28T23:40:46.718Z,100.00
2023-03-28T23:43:15.016Z,100.00
2023-03-28T23:45:43.712Z,100.00
2023-03-28T23:48:12.008Z,100.00
2023-03-28T23:50:40.427Z,100.00
2023-03-28T23:53:08.531Z,100.00
2023-03-28T23:55:36.985Z,100.00
2023-03-28T23:58:05.603Z,100.00
